createdAt,value
2018-05-10T00:01:10.897Z,7.28
2018-05-10T00:03:37.549Z,8.20
2018-05-10T00:06:04.132Z,6.32
2018-05-10T00:08:30.686Z,5.95
2018-05-10T00:10:57.664Z,5.13
2018-05-10T00:13:24.201Z,6.37
2018-05-10T00:15:50.793Z,5.50
2018-05-10T00:18:17.420Z,5.72
2018-05-10T00:20:43.991Z,5.10
2018-05-10T00:23:10.584Z,5.43
2018-05-10T00:25:37.136Z,6.50
2018-05-10T00:28:03.776Z,5.40
2018-05-10T00:30:30.408Z,7.30
2018-05-10T00:32:56.965Z,6.20
2018-05-10T00:35:23.540Z,6.20
2018-05-10T00:37:50.110Z,6.40
2018-05-10T00:40:16.744Z,6.05
2018-05-10T00:42:43.700Z,5.60
2018-05-10T00:45:10.625Z,6.80
2018-05-10T00:47:37.212Z,6.10
2018-05-10T00:50:04.171Z,6.65
2018-05-10T00:52:30.813Z,7.90
2018-05-10T00:54:57.812Z,5.72
2018-05-10T00:57:24.355Z,6.70
2018-05-10T00:59:50.939Z,7.57
2018-05-10T01:02:17.544Z,8.67
2018-05-10T01:04:44.183Z,7.60
2018-05-10T01:07:11.119Z,7.72
2018-05-10T01:09:38.050Z,6.30
2018-05-10T01:12:04.657Z,6.40
2018-05-10T01:14:31.207Z,6.72
2018-05-10T01:16:57.853Z,6.62
2018-05-10T01:19:24.475Z,5.95
2018-05-10T01:21:51.484Z,6.60
2018-05-10T01:24:18.087Z,6.90
2018-05-10T01:26:45.052Z,8.43
2018-05-10T01:29:11.604Z,6.93
2018-05-10T01:31:38.196Z,7.50
2018-05-10T01:34:04.838Z,6.32
2018-05-10T01:36:31.390Z,7.62
2018-05-10T01:38:57.976Z,5.95
2018-05-10T01:41:24.913Z,6.40
2018-05-10T01:43:51.508Z,6.30
2018-05-10T01:46:18.111Z,6.82
2018-05-10T01:48:44.674Z,7.57
2018-05-10T01:51:11.624Z,8.20
2018-05-10T01:53:38.180Z,6.60
2018-05-10T01:56:05.121Z,6.50
2018-05-10T01:58:32.077Z,5.20
2018-05-10T02:00:58.636Z,6.37
2018-05-10T02:03:25.600Z,5.70
2018-05-10T02:05:52.551Z,5.35
2018-05-10T02:08:19.521Z,5.63
2018-05-10T02:10:46.161Z,6.28
2018-05-10T02:13:13.100Z,8.60
2018-05-10T02:15:39.684Z,5.85
2018-05-10T02:18:06.260Z,6.90
2018-05-10T02:20:32.868Z,6.85
2018-05-10T02:22:59.833Z,6.28
2018-05-10T02:25:26.391Z,5.70
2018-05-10T02:27:52.980Z,5.60
2018-05-10T02:30:19.529Z,4.62
2018-05-10T02:32:46.152Z,5.03
2018-05-10T02:35:12.774Z,5.35
2018-05-10T02:37:39.334Z,5.60
2018-05-10T02:40:05.924Z,5.10
2018-05-10T02:42:32.495Z,4.70
2018-05-10T02:44:59.538Z,7.62
2018-05-10T02:47:26.105Z,5.30
2018-05-10T02:49:53.037Z,5.20
2018-05-10T02:52:19.628Z,4.50
2018-05-10T02:54:46.189Z,4.30
2018-05-10T02:57:12.816Z,6.50
2018-05-10T02:59:39.431Z,4.20
2018-05-10T03:02:06.025Z,4.95
2018-05-10T03:04:32.909Z,4.40
2018-05-10T03:06:59.473Z,5.10
2018-05-10T03:09:26.051Z,4.40
2018-05-10T03:11:52.680Z,6.40
2018-05-10T03:14:19.252Z,4.37
2018-05-10T03:16:45.855Z,4.30
2018-05-10T03:19:12.434Z,6.70
2018-05-10T03:21:39.454Z,5.70
2018-05-10T03:24:06.044Z,4.53
2018-05-10T03:26:32.601Z,3.83
2018-05-10T03:28:59.547Z,4.20
2018-05-10T03:31:26.477Z,4.72
2018-05-10T03:33:53.084Z,4.75
2018-05-10T03:36:19.671Z,4.10
2018-05-10T03:38:46.231Z,4.37
2018-05-10T03:41:12.857Z,6.07
2018-05-10T03:43:39.407Z,5.43
2018-05-10T03:46:06.002Z,4.30
2018-05-10T03:48:32.956Z,4.87
2018-05-10T03:50:59.872Z,3.65
2018-05-10T03:53:26.455Z,4.23
2018-05-10T03:55:53.424Z,4.00
2018-05-10T03:58:20.397Z,4.05
2018-05-10T04:00:46.989Z,4.37
2018-05-10T04:03:49.024Z,3.60
2018-05-10T04:06:27.987Z,4.40
2018-05-10T04:09:06.696Z,6.82
2018-05-10T04:11:33.320Z,3.70
2018-05-10T04:14:00.248Z,4.60
2018-05-10T04:16:26.832Z,3.83
2018-05-10T04:18:53.802Z,3.80
2018-05-10T04:21:20.414Z,4.12
2018-05-10T04:23:47.043Z,4.32
2018-05-10T04:26:13.592Z,3.12
2018-05-10T04:28:40.189Z,3.72
2018-05-10T04:31:06.740Z,3.80
2018-05-10T04:33:33.320Z,5.15
2018-05-10T04:35:59.893Z,3.37
2018-05-10T04:38:26.444Z,3.10
2018-05-10T04:40:53.045Z,3.33
2018-05-10T04:43:19.625Z,3.30
2018-05-10T04:45:46.272Z,5.87
2018-05-10T04:48:12.863Z,3.20
2018-05-10T04:50:39.822Z,3.60
2018-05-10T04:53:06.376Z,3.95
2018-05-10T04:55:32.948Z,3.40
2018-05-10T04:57:59.501Z,3.90
2018-05-10T05:00:26.173Z,3.10
2018-05-10T05:02:52.789Z,3.30
2018-05-10T05:05:19.356Z,3.37
2018-05-10T05:07:45.977Z,3.00
2018-05-10T05:10:12.537Z,2.65
2018-05-10T05:12:39.121Z,2.70
2018-05-10T05:15:05.700Z,2.90
2018-05-10T05:17:32.632Z,3.22
2018-05-10T05:19:59.272Z,3.40
2018-05-10T05:22:25.832Z,2.20
2018-05-10T05:24:52.411Z,2.25
2018-05-10T05:27:19.002Z,2.90
2018-05-10T05:29:45.591Z,3.10
2018-05-10T05:32:12.543Z,2.33
2018-05-10T05:34:39.096Z,5.70
2018-05-10T05:37:05.693Z,2.50
2018-05-10T05:39:32.263Z,2.35
2018-05-10T05:41:58.801Z,2.50
2018-05-10T05:44:25.377Z,2.63
2018-05-10T05:46:51.928Z,4.37
2018-05-10T05:49:18.880Z,6.57
2018-05-10T05:51:45.477Z,4.83
2018-05-10T05:54:12.015Z,3.00
2018-05-10T05:56:38.593Z,3.80
2018-05-10T05:59:05.123Z,2.60
2018-05-10T06:01:31.695Z,3.83
2018-05-10T06:03:58.279Z,3.00
2018-05-10T06:06:25.176Z,3.50
2018-05-10T06:08:51.760Z,2.87
2018-05-10T06:11:18.328Z,2.80
2018-05-10T06:13:45.285Z,2.95
2018-05-10T06:16:12.201Z,3.08
2018-05-10T06:18:38.844Z,3.40
2018-05-10T06:21:05.420Z,4.18
2018-05-10T06:23:31.988Z,3.53
2018-05-10T06:25:59.681Z,2.60
2018-05-10T06:28:26.259Z,5.43
2018-05-10T06:30:52.805Z,2.80
2018-05-10T06:33:19.433Z,3.70
2018-05-10T06:35:46.001Z,2.05
2018-05-10T06:38:12.625Z,3.80
2018-05-10T06:40:39.219Z,3.60
2018-05-10T06:43:05.752Z,3.22
2018-05-10T06:45:32.336Z,4.50
2018-05-10T06:47:59.260Z,2.45
2018-05-10T06:50:25.833Z,2.92
2018-05-10T06:52:52.405Z,2.50
2018-05-10T06:55:19.384Z,2.37
2018-05-10T06:57:45.962Z,2.12
2018-05-10T07:00:12.531Z,2.60
2018-05-10T07:02:39.144Z,2.53
2018-05-10T07:05:05.740Z,2.30
2018-05-10T07:07:32.672Z,2.67
2018-05-10T07:09:59.498Z,2.40
2018-05-10T07:12:25.868Z,3.10
2018-05-10T07:14:52.440Z,2.53
2018-05-10T07:17:19.412Z,3.00
2018-05-10T07:19:46.026Z,2.40
2018-05-10T07:22:12.620Z,3.22
2018-05-10T07:24:39.156Z,2.80
2018-05-10T07:27:05.756Z,2.58
2018-05-10T07:29:32.373Z,2.47
2018-05-10T07:31:58.964Z,2.30
2018-05-10T07:34:25.540Z,2.75
2018-05-10T07:36:52.112Z,2.72
2018-05-10T07:39:18.688Z,3.50
2018-05-10T07:41:45.293Z,1.90
2018-05-10T07:44:11.913Z,3.03
2018-05-10T07:46:38.489Z,3.15
2018-05-10T07:49:05.099Z,2.37
2018-05-10T07:51:31.648Z,2.90
2018-05-10T07:53:58.236Z,1.98
2018-05-10T07:56:24.817Z,2.70
2018-05-10T07:58:51.368Z,2.10
2018-05-10T08:01:17.988Z,3.03
2018-05-10T08:03:44.537Z,5.20
2018-05-10T08:06:11.126Z,2.42
2018-05-10T08:08:44.661Z,2.45
2018-05-10T08:11:11.608Z,2.33
2018-05-10T08:13:38.203Z,2.17
2018-05-10T08:16:04.765Z,2.97
2018-05-10T08:18:31.353Z,2.20
2018-05-10T08:20:57.967Z,2.33
2018-05-10T08:23:24.643Z,2.80
2018-05-10T08:25:51.263Z,2.50
2018-05-10T08:28:17.892Z,2.40
2018-05-10T08:30:44.540Z,3.35
2018-05-10T08:33:11.109Z,2.65
2018-05-10T08:35:37.692Z,4.13
2018-05-10T08:38:04.240Z,3.25
2018-05-10T08:40:30.835Z,7.47
2018-05-10T08:42:57.488Z,7.18
2018-05-10T08:45:24.365Z,3.63
2018-05-10T08:47:50.948Z,5.93
2018-05-10T08:50:17.540Z,6.32
2018-05-10T08:52:44.121Z,7.15
2018-05-10T08:55:10.709Z,3.53
2018-05-10T08:57:37.632Z,3.50
2018-05-10T09:00:04.311Z,4.93
2018-05-10T09:02:30.897Z,5.75
2018-05-10T09:04:57.474Z,4.15
2018-05-10T09:07:24.086Z,6.87
2018-05-10T09:09:50.644Z,5.15
2018-05-10T09:12:17.255Z,5.43
2018-05-10T09:14:43.817Z,3.70
2018-05-10T09:17:10.395Z,5.80
2018-05-10T09:19:36.973Z,6.05
2018-05-10T09:22:03.542Z,8.82
2018-05-10T09:24:30.137Z,6.70
2018-05-10T09:26:56.689Z,4.75
2018-05-10T09:29:23.309Z,4.45
2018-05-10T09:31:49.901Z,4.40
2018-05-10T09:34:16.468Z,5.82
2018-05-10T09:36:43.426Z,4.80
2018-05-10T09:39:10.404Z,5.90
2018-05-10T09:41:37.353Z,3.83
2018-05-10T09:44:04.324Z,4.28
2018-05-10T09:46:30.872Z,6.68
2018-05-10T09:48:57.444Z,4.53
2018-05-10T09:51:24.120Z,4.10
2018-05-10T09:53:50.768Z,4.33
2018-05-10T09:56:17.761Z,2.90
2018-05-10T09:58:44.716Z,3.07
2018-05-10T10:01:12.077Z,3.83
2018-05-10T10:03:39.066Z,2.90
2018-05-10T10:06:05.944Z,3.75
2018-05-10T10:08:32.704Z,4.32
2018-05-10T10:10:59.284Z,3.53
2018-05-10T10:13:26.280Z,4.47
2018-05-10T10:15:52.881Z,5.50
2018-05-10T10:18:20.330Z,2.85
2018-05-10T10:20:46.920Z,2.42
2018-05-10T10:23:13.973Z,3.30
2018-05-10T10:25:40.971Z,3.97
2018-05-10T10:28:07.578Z,3.05
2018-05-10T10:30:34.525Z,2.50
2018-05-10T10:33:01.504Z,2.45
2018-05-10T10:35:28.047Z,4.78
2018-05-10T10:37:54.992Z,2.90
2018-05-10T10:40:21.896Z,2.22
2018-05-10T10:42:48.777Z,2.20
2018-05-10T10:45:15.368Z,2.47
2018-05-10T10:47:41.921Z,2.87
2018-05-10T10:50:08.510Z,3.65
2018-05-10T10:52:35.060Z,5.05
2018-05-10T10:55:01.607Z,3.77
2018-05-10T10:57:28.188Z,2.28
2018-05-10T10:59:55.138Z,2.30
2018-05-10T11:02:22.060Z,3.33
2018-05-10T11:04:49.454Z,3.80
2018-05-10T11:07:16.048Z,5.18
2018-05-10T11:09:42.641Z,3.30
2018-05-10T11:12:09.253Z,4.00
2018-05-10T11:14:35.796Z,2.60
2018-05-10T11:17:02.376Z,1.80
2018-05-10T11:19:28.968Z,3.78
2018-05-10T11:21:55.904Z,2.87
2018-05-10T11:24:22.865Z,5.25
2018-05-10T11:26:49.444Z,2.75
2018-05-10T11:29:16.065Z,3.90
2018-05-10T11:31:43.017Z,3.10
2018-05-10T11:34:09.929Z,2.80
2018-05-10T11:36:36.500Z,3.08
2018-05-10T11:39:03.184Z,6.37
2018-05-10T11:41:29.736Z,4.95
2018-05-10T11:43:59.614Z,3.47
2018-05-10T11:46:26.169Z,2.90
2018-05-10T11:48:52.736Z,2.70
2018-05-10T11:51:19.290Z,3.95
2018-05-10T11:53:45.892Z,3.30
2018-05-10T11:56:12.475Z,3.50
2018-05-10T11:58:39.037Z,3.30
2018-05-10T12:01:05.995Z,3.47
2018-05-10T12:03:32.947Z,3.30
2018-05-10T12:05:59.997Z,3.10
2018-05-10T12:08:26.525Z,4.68
2018-05-10T12:10:53.076Z,4.32
2018-05-10T12:13:19.702Z,3.47
2018-05-10T12:15:46.277Z,3.30
2018-05-10T12:18:12.860Z,5.32
2018-05-10T12:20:39.441Z,3.95
2018-05-10T12:23:05.994Z,3.00
2018-05-10T12:25:32.587Z,3.20
2018-05-10T12:27:59.160Z,5.75
2018-05-10T12:30:25.817Z,5.65
2018-05-10T12:32:52.405Z,3.80
2018-05-10T12:35:18.963Z,3.27
2018-05-10T12:37:45.547Z,3.67
2018-05-10T12:40:12.102Z,4.78
2018-05-10T12:42:38.701Z,3.97
2018-05-10T12:45:05.282Z,3.40
2018-05-10T12:47:31.856Z,5.35
2018-05-10T12:49:58.444Z,6.50
2018-05-10T12:52:24.986Z,3.45
2018-05-10T12:54:51.957Z,16.58
2018-05-10T12:57:18.548Z,3.28
2018-05-10T12:59:45.094Z,3.30
2018-05-10T13:02:11.680Z,6.37
2018-05-10T13:04:38.220Z,3.72
2018-05-10T13:07:04.813Z,3.28
2018-05-10T13:09:31.812Z,3.60
2018-05-10T13:11:58.360Z,4.80
2018-05-10T13:14:24.940Z,5.00
2018-05-10T13:16:51.493Z,3.40
2018-05-10T13:19:18.163Z,2.97
2018-05-10T13:21:44.779Z,4.90
2018-05-10T13:24:11.322Z,3.62
2018-05-10T13:26:37.900Z,4.57
2018-05-10T13:29:04.879Z,5.87
2018-05-10T13:31:31.492Z,7.47
2018-05-10T13:33:58.121Z,6.15
2018-05-10T13:36:24.688Z,4.82
2018-05-10T13:38:51.278Z,3.10
2018-05-10T13:41:17.840Z,3.17
2018-05-10T13:43:44.434Z,3.03
2018-05-10T13:46:11.034Z,2.40
2018-05-10T13:48:37.610Z,3.10
2018-05-10T13:51:04.256Z,3.85
2018-05-10T13:53:30.812Z,2.50
2018-05-10T13:55:57.413Z,3.90
2018-05-10T13:58:24.002Z,3.60
2018-05-10T14:00:50.576Z,2.50
2018-05-10T14:03:17.573Z,4.97
2018-05-10T14:05:44.128Z,4.80
2018-05-10T14:08:10.717Z,4.10
2018-05-10T14:10:37.685Z,5.15
2018-05-10T14:13:04.652Z,2.70
2018-05-10T14:15:31.702Z,3.80
2018-05-10T14:17:58.648Z,2.75
2018-05-10T14:20:25.196Z,3.80
2018-05-10T14:22:51.784Z,3.37
2018-05-10T14:25:18.473Z,2.90
2018-05-10T14:27:45.009Z,2.60
2018-05-10T14:30:11.634Z,2.92
2018-05-10T14:32:38.232Z,3.08
2018-05-10T14:35:04.842Z,2.28
2018-05-10T14:37:31.451Z,1.92
2018-05-10T14:39:58.401Z,7.28
2018-05-10T14:42:25.029Z,2.47
2018-05-10T14:44:51.596Z,8.90
2018-05-10T14:47:18.204Z,2.80
2018-05-10T14:49:44.813Z,2.80
2018-05-10T14:52:11.355Z,3.05
2018-05-10T14:54:38.301Z,4.78
2018-05-10T14:57:05.401Z,2.42
2018-05-10T14:59:32.292Z,4.28
2018-05-10T15:01:59.148Z,2.15
2018-05-10T15:04:25.703Z,4.80
2018-05-10T15:06:52.301Z,3.70
2018-05-10T15:09:18.918Z,7.15
2018-05-10T15:11:46.717Z,3.60
2018-05-10T15:14:13.324Z,4.87
2018-05-10T15:16:39.886Z,5.18
2018-05-10T15:19:06.847Z,4.60
2018-05-10T15:21:33.791Z,7.57
2018-05-10T15:24:00.366Z,6.40
2018-05-10T15:26:26.965Z,2.35
2018-05-10T15:28:53.571Z,5.80
2018-05-10T15:31:20.214Z,6.15
2018-05-10T15:33:46.794Z,6.32
2018-05-10T15:36:13.403Z,1.73
2018-05-10T15:38:40.361Z,8.50
2018-05-10T15:41:06.932Z,5.07
2018-05-10T15:43:33.515Z,7.22
2018-05-10T15:46:00.070Z,4.50
2018-05-10T15:48:26.653Z,6.30
2018-05-10T15:50:53.253Z,4.40
2018-05-10T15:53:19.815Z,1.52
2018-05-10T15:55:46.437Z,1.60
2018-05-10T15:58:13.023Z,2.03
2018-05-10T16:00:39.608Z,1.58
2018-05-10T16:03:06.236Z,3.50
2018-05-10T16:05:32.800Z,4.60
2018-05-10T16:07:59.392Z,1.97
2018-05-10T16:10:25.957Z,2.10
2018-05-10T16:12:52.648Z,1.33
2018-05-10T16:15:19.237Z,1.90
2018-05-10T16:17:45.847Z,2.20
2018-05-10T16:20:12.433Z,3.50
2018-05-10T16:22:38.980Z,1.60
2018-05-10T16:25:05.572Z,2.87
2018-05-10T16:27:32.565Z,1.07
2018-05-10T16:29:59.148Z,2.60
2018-05-10T16:32:25.732Z,1.40
2018-05-10T16:34:52.300Z,1.67
2018-05-10T16:37:18.897Z,1.60
2018-05-10T16:39:45.894Z,4.40
2018-05-10T16:42:12.456Z,1.23
2018-05-10T16:44:39.034Z,1.50
2018-05-10T16:47:05.600Z,1.27
2018-05-10T16:49:32.206Z,1.70
2018-05-10T16:51:58.867Z,2.10
2018-05-10T16:54:25.364Z,7.12
2018-05-10T16:56:51.952Z,3.42
2018-05-10T16:59:18.499Z,1.35
2018-05-10T17:01:45.096Z,1.25
2018-05-10T17:04:12.052Z,1.50
2018-05-10T17:06:38.975Z,5.10
2018-05-10T17:09:05.698Z,2.00
2018-05-10T17:11:32.246Z,4.30
2018-05-10T17:13:58.837Z,4.10
2018-05-10T17:16:25.431Z,2.10
2018-05-10T17:18:51.989Z,1.45
2018-05-10T17:21:18.605Z,2.25
2018-05-10T17:23:45.574Z,1.87
2018-05-10T17:26:12.141Z,1.70
2018-05-10T17:28:38.734Z,1.60
2018-05-10T17:31:05.463Z,1.70
2018-05-10T17:33:32.368Z,1.40
2018-05-10T17:35:59.025Z,2.30
2018-05-10T17:38:25.636Z,1.60
2018-05-10T17:40:52.221Z,1.70
2018-05-10T17:43:18.832Z,1.20
2018-05-10T17:45:45.396Z,1.33
2018-05-10T17:48:12.359Z,3.40
2018-05-10T17:50:39.329Z,1.37
2018-05-10T17:53:06.241Z,1.10
2018-05-10T17:55:32.849Z,3.83
2018-05-10T17:57:59.537Z,1.20
2018-05-10T18:00:26.160Z,1.30
2018-05-10T18:02:52.741Z,2.00
2018-05-10T18:05:19.305Z,2.37
2018-05-10T18:07:45.898Z,1.70
2018-05-10T18:10:12.459Z,1.40
2018-05-10T18:12:39.176Z,2.20
2018-05-10T18:15:06.158Z,5.40
2018-05-10T18:17:39.925Z,1.90
2018-05-10T18:20:06.495Z,3.13
2018-05-10T18:22:33.403Z,2.20
2018-05-10T18:24:59.987Z,1.48
2018-05-10T18:27:26.533Z,1.20
2018-05-10T18:29:53.553Z,3.50
2018-05-10T18:32:20.144Z,1.20
2018-05-10T18:34:47.102Z,1.85
2018-05-10T18:37:14.072Z,2.00
2018-05-10T18:39:40.736Z,4.53
2018-05-10T18:42:07.371Z,2.42
2018-05-10T18:44:33.947Z,5.45
2018-05-10T18:47:00.805Z,1.50
2018-05-10T18:49:27.437Z,3.75
2018-05-10T18:51:54.013Z,1.60
2018-05-10T18:54:21.312Z,1.77
2018-05-10T18:56:48.245Z,2.20
2018-05-10T18:59:14.840Z,3.00
2018-05-10T19:01:41.441Z,1.10
2018-05-10T19:04:08.005Z,1.10
2018-05-10T19:06:34.597Z,1.70
2018-05-10T19:09:02.211Z,1.80
2018-05-10T19:11:28.825Z,1.40
2018-05-10T19:13:56.370Z,1.03
2018-05-10T19:16:23.281Z,2.30
2018-05-10T19:18:49.902Z,1.60
2018-05-10T19:21:17.246Z,1.48
2018-05-10T19:23:43.903Z,2.37
2018-05-10T19:26:10.455Z,1.42
2018-05-10T19:28:37.074Z,1.50
2018-05-10T19:31:04.114Z,1.50
2018-05-10T19:33:30.671Z,1.70
2018-05-10T19:35:57.624Z,1.65
2018-05-10T19:38:24.279Z,2.10
2018-05-10T19:40:50.844Z,2.30
2018-05-10T19:43:17.926Z,2.20
2018-05-10T19:45:45.501Z,2.65
2018-05-10T19:48:12.072Z,2.60
2018-05-10T19:50:39.021Z,3.20
2018-05-10T19:53:05.627Z,4.45
2018-05-10T19:55:33.266Z,3.90
2018-05-10T19:57:59.814Z,4.17
2018-05-10T20:00:26.504Z,6.03
2018-05-10T20:02:53.887Z,5.82
2018-05-10T20:05:28.084Z,6.50
2018-05-10T20:07:54.684Z,6.60
2018-05-10T20:10:21.641Z,7.32
2018-05-10T20:12:48.236Z,5.30
2018-05-10T20:15:15.173Z,4.60
2018-05-10T20:17:41.723Z,4.50
2018-05-10T20:20:08.316Z,4.50
2018-05-10T20:22:35.149Z,4.70
2018-05-10T20:25:01.959Z,5.00
2018-05-10T20:27:28.819Z,4.00
2018-05-10T20:29:55.609Z,5.07
2018-05-10T20:32:22.918Z,4.20
2018-05-10T20:34:49.758Z,4.45
2018-05-10T20:37:16.597Z,4.12
2018-05-10T20:39:43.185Z,4.10
2018-05-10T20:42:09.732Z,4.03
2018-05-10T20:44:36.331Z,3.67
2018-05-10T20:47:02.936Z,4.00
2018-05-10T20:49:29.484Z,4.40
2018-05-10T20:51:56.071Z,4.18
2018-05-10T20:54:23.000Z,3.80
2018-05-10T20:56:49.584Z,4.30
2018-05-10T20:59:16.161Z,5.10
2018-05-10T21:01:42.714Z,4.50
2018-05-10T21:04:09.293Z,5.73
2018-05-10T21:06:35.857Z,5.12
2018-05-10T21:09:02.922Z,5.95
2018-05-10T21:11:29.888Z,5.32
2018-05-10T21:13:56.439Z,5.35
2018-05-10T21:16:23.993Z,5.35
2018-05-10T21:18:50.495Z,5.93
2018-05-10T21:21:17.144Z,5.18
2018-05-10T21:23:43.732Z,7.30
2018-05-10T21:26:10.724Z,6.32
2018-05-10T21:28:37.644Z,7.25
2018-05-10T21:31:04.224Z,6.93
2018-05-10T21:33:30.812Z,8.15
2018-05-10T21:35:57.348Z,7.43
2018-05-10T21:38:23.945Z,6.80
2018-05-10T21:40:50.894Z,8.25
2018-05-10T21:43:17.808Z,9.00
2018-05-10T21:45:44.385Z,8.65
2018-05-10T21:48:11.292Z,10.20
2018-05-10T21:50:37.862Z,7.78
2018-05-10T21:53:04.456Z,9.27
2018-05-10T21:58:05.625Z,7.90
2018-05-10T22:00:32.547Z,8.63
2018-05-10T22:03:14.005Z,8.10
2018-05-10T22:05:40.628Z,10.13
2018-05-10T22:08:07.540Z,10.95
2018-05-10T22:10:34.126Z,9.77
2018-05-10T22:13:00.721Z,7.60
2018-05-10T22:15:27.308Z,7.93
2018-05-10T22:17:53.880Z,9.85
2018-05-10T22:20:20.845Z,8.40
2018-05-10T22:22:47.809Z,9.52
2018-05-10T22:25:14.380Z,8.85
2018-05-10T22:27:40.972Z,8.05
2018-05-10T22:30:07.619Z,9.30
2018-05-10T22:32:34.169Z,9.82
2018-05-10T22:35:00.762Z,8.20
2018-05-10T22:37:27.361Z,7.97
2018-05-10T22:39:53.996Z,10.43
2018-05-10T22:42:20.612Z,8.05
2018-05-10T22:44:47.166Z,8.60
2018-05-10T22:47:13.768Z,10.48
2018-05-10T22:49:40.681Z,9.52
2018-05-10T22:52:07.257Z,8.52
2018-05-10T22:54:33.828Z,8.60
2018-05-10T22:57:00.732Z,8.00
2018-05-10T22:59:27.301Z,7.80
2018-05-10T23:01:53.848Z,7.43
2018-05-10T23:04:20.419Z,7.45
2018-05-10T23:06:47.418Z,7.50
2018-05-10T23:09:13.972Z,7.57
2018-05-10T23:11:40.553Z,6.87
2018-05-10T23:14:07.136Z,11.57
2018-05-10T23:16:33.725Z,7.03
2018-05-10T23:19:00.296Z,7.03
2018-05-10T23:21:26.840Z,5.93
2018-05-10T23:23:53.441Z,6.70
2018-05-10T23:26:19.989Z,5.30
2018-05-10T23:28:46.537Z,5.78
2018-05-10T23:31:13.128Z,6.93
2018-05-10T23:33:39.729Z,5.45
2018-05-10T23:36:06.275Z,5.20
2018-05-10T23:38:32.872Z,5.60
2018-05-10T23:40:59.421Z,5.70
2018-05-10T23:43:25.993Z,6.37
2018-05-10T23:45:52.949Z,7.00
2018-05-10T23:48:19.881Z,5.75
2018-05-10T23:50:46.500Z,5.43
2018-05-10T23:53:13.056Z,5.22
2018-05-10T23:55:39.633Z,5.70
2018-05-10T23:58:06.209Z,5.25
